Ashton, Kansas
Current Conditions -  °F | °C
As of 11:54 AM on Monday 24 Nov 2014 (Local Time) from KWLD Reporting Station
Clear Clear  
Wind Chill: 50°   Ceiling: Unl
Heat Index: 50°   Visibility: 10mi
Dew Point: 26°   Wind: 20mph
Humidity: 39%   Direction: 290°WNW
Pressure: 29.92"   Gusts: 26mph
Location:  37.0641°N, 97.2025°W
Report Text: KWLD 241754Z AUTO 29017G23KT 10SM CLR 10/M03 A2992 RMK AO2 SLP133 T01001033 10100 20006 50015
Loading
Personal Weather Stations






























Interactive Weather Map New forecast layout! Learn more

10-Day Weather Forecast

Advertisements
Track Severe Weather on mobile